VYTN weather

Tanai Airport
Tanai, Kachin State, Burma

Public forecast

Using degrees Celsius for public forecast. Weather courtesy of forecast.io.

Closest aviation weather report (METAR) to Tanai Airport

Closest report is Dibrugarh Airport, 113.7 nm (210.6 km) NW. Retrieved 2020/04/08 04:00 UTC (6 minutes ago):

VEMN 080400Z 05003KT 4000 HZ FEW020 SCT100 26/14 Q1013 NOSIG

Closest aviation forecast (TAF) to Tanai Airport

Forecast is more than 12 hours old.

Closest forecast is Jorhat Airport, 139.1 nm (257.6 km) W. Retrieved 2020/04/07 12:30 UTC (16 hours ago):

TAF VEJT 070930Z 0712/0724 02010KT 6000 FEW030 SCT090 BECMG 0715/0716 VRB02KT 5000 BR SCT025 SCT090 BECMG 0722/0723 4000 BR TEMPO 0718/0721 5000 -RABR SCT025 FEW030TCU/CB BKN090